Eric R. Thornton — WDH3837 — position and weather

sailwx.info

Track history (hours):
 
Tides and Currents Weather Stations Pressure Air Temp Water Temp Dewpoint Dewpoint Depression Visibility Wind Speed Wind Dir Waves Ship Positions

Eric R. Thornton

Owner: Marine Steel Transport Line, LLC, Allendale, NJ. More information available from US FCC via Universal Licensing System and Coast Guard Vessel Documentation Center.

Last reported at 2018-Jul-09 19:16 UTC. Time now 2018-Jul-17 19:07 UTC.
Position N 40°38' W 074°09'.

Length 29 m; draft 3.2 m.

Type: Tug. MMSI: 367611450.

Date/timePositionNaut miles runAvg speedWind from/ knotsBaromVisibWave heightAir tempDewpointWater temp
2018-Jul-09 19:16N 40°38' W 074°09'0 0.0
2018-Jul-09 18:58N 40°38' W 074°09'0 0.0
2018-Jul-09 18:28N 40°38' W 074°09'0 0.0
2018-Jul-09 17:58N 40°38' W 074°09'0 0.0
2018-Jul-09 17:22N 40°38' W 074°09'0 0.0
2018-Jul-09 16:49N 40°38' W 074°09'0 0.0
2018-Jul-09 16:19N 40°38' W 074°09'0 0.0
2018-Jul-09 15:55N 40°38' W 074°09'0 0.0
2018-Jul-09 15:25N 40°38' W 074°09'0 0.0
2018-Jul-09 14:55N 40°38' W 074°09'0 0.0
2018-Jul-09 02:59N 40°38' W 074°09'3 6.3
2018-Jul-09 02:30N 40°41' W 074°08'0 0.3
2018-Jul-09 02:00N 40°41' W 074°08'2 4.5
2018-Jul-09 01:30N 40°39' W 074°09'1 2.8
2018-Jul-09 00:59N 40°39' W 074°07'2 3.7
2018-Jul-09 00:30N 40°39' W 074°05'3 5.2
2018-Jul-09 00:00N 40°41' W 074°02'3 6.3
2018-Jul-08 23:30N 40°43' W 073°59'2 4.5
2018-Jul-08 23:00N 40°44' W 073°56'1 2.4
2018-Jul-08 22:30N 40°43' W 073°56'1 2.2
2018-Jul-08 22:00N 40°44' W 073°56'4 7.6
2018-Jul-08 21:30N 40°42' W 074°00'5 9.7
2018-Jul-08 21:00N 40°39' W 074°06'3 0.1
2018-Jul-07 08:02N 40°38' W 074°09'0 0.0
2018-Jul-07 06:38N 40°38' W 074°09'0 0.0
2018-Jul-07 06:08N 40°38' W 074°09'0 1.3
2018-Jul-07 06:00N 40°38' W 074°09'510.0
2018-Jul-07 05:30N 40°40' W 074°03'2 3.0
2018-Jul-07 05:00N 40°40' W 074°01'2 4.6
2018-Jul-07 04:30N 40°38' W 074°03'4 7.6
2018-Jul-07 04:00N 40°34' W 074°02'4 7.4
2018-Jul-07 03:28N 40°31' W 073°59'4 8.1
2018-Jul-07 02:59N 40°31' W 073°54'6 1.1
2018-Jul-06 21:04N 40°33' W 074°02'2 8.4
2018-Jul-06 20:49N 40°35' W 074°02'3 8.1
2018-Jul-06 20:26N 40°38' W 074°03'2 5.5
2018-Jul-06 20:01N 40°40' W 074°01'0 0.0
2018-Jul-06 19:30N 40°40' W 074°01'0 0.0
2018-Jul-06 19:00N 40°40' W 074°01'0 0.0
2018-Jul-06 18:30N 40°40' W 074°01'1 1.3
2018-Jul-06 18:01N 40°40' W 074°01'5 9.9
2018-Jul-06 17:30N 40°39' W 074°08'1 0.3
2018-Jul-06 13:17N 40°38' W 074°09'2 7.7
2018-Jul-06 12:59N 40°40' W 074°08'2 4.2
2018-Jul-06 12:28N 40°43' W 074°07'0 0.0
2018-Jul-06 11:58N 40°43' W 074°07'2 4.1
2018-Jul-06 11:30N 40°41' W 074°08'3 4.5
2018-Jul-06 10:55N 40°38' W 074°09'  
Track history (hours):
 
Tides and Currents Weather Stations Pressure Air Temp Water Temp Dewpoint Dewpoint Depression Visibility Wind Speed Wind Dir Waves Ship Positions

Eric R. Thornton

Owner: Marine Steel Transport Line, LLC, Allendale, NJ. More information available from US FCC via Universal Licensing System and Coast Guard Vessel Documentation Center.

Last reported at 2018-Jul-09 19:16 UTC. Time now 2018-Jul-17 19:07 UTC.
Position N 40°38' W 074°09'.

Length 29 m; draft 3.2 m.

Type: Tug. MMSI: 367611450.

Date/timePositionNaut miles runAvg speedWind from/ knotsBaromVisibWave heightAir tempDewpointWater temp
2018-Jul-09 19:16N 40°38' W 074°09'0 0.0
2018-Jul-09 18:58N 40°38' W 074°09'0 0.0
2018-Jul-09 18:28N 40°38' W 074°09'0 0.0
2018-Jul-09 17:58N 40°38' W 074°09'0 0.0
2018-Jul-09 17:22N 40°38' W 074°09'0 0.0
2018-Jul-09 16:49N 40°38' W 074°09'0 0.0
2018-Jul-09 16:19N 40°38' W 074°09'0 0.0
2018-Jul-09 15:55N 40°38' W 074°09'0 0.0
2018-Jul-09 15:25N 40°38' W 074°09'0 0.0
2018-Jul-09 14:55N 40°38' W 074°09'0 0.0
2018-Jul-09 02:59N 40°38' W 074°09'3 6.3
2018-Jul-09 02:30N 40°41' W 074°08'0 0.3
2018-Jul-09 02:00N 40°41' W 074°08'2 4.5
2018-Jul-09 01:30N 40°39' W 074°09'1 2.8
2018-Jul-09 00:59N 40°39' W 074°07'2 3.7
2018-Jul-09 00:30N 40°39' W 074°05'3 5.2
2018-Jul-09 00:00N 40°41' W 074°02'3 6.3
2018-Jul-08 23:30N 40°43' W 073°59'2 4.5
2018-Jul-08 23:00N 40°44' W 073°56'1 2.4
2018-Jul-08 22:30N 40°43' W 073°56'1 2.2
2018-Jul-08 22:00N 40°44' W 073°56'4 7.6
2018-Jul-08 21:30N 40°42' W 074°00'5 9.7
2018-Jul-08 21:00N 40°39' W 074°06'3 0.1
2018-Jul-07 08:02N 40°38' W 074°09'0 0.0
2018-Jul-07 06:38N 40°38' W 074°09'0 0.0
2018-Jul-07 06:08N 40°38' W 074°09'0 1.3
2018-Jul-07 06:00N 40°38' W 074°09'510.0
2018-Jul-07 05:30N 40°40' W 074°03'2 3.0
2018-Jul-07 05:00N 40°40' W 074°01'2 4.6
2018-Jul-07 04:30N 40°38' W 074°03'4 7.6
2018-Jul-07 04:00N 40°34' W 074°02'4 7.4
2018-Jul-07 03:28N 40°31' W 073°59'4 8.1
2018-Jul-07 02:59N 40°31' W 073°54'6 1.1
2018-Jul-06 21:04N 40°33' W 074°02'2 8.4
2018-Jul-06 20:49N 40°35' W 074°02'3 8.1
2018-Jul-06 20:26N 40°38' W 074°03'2 5.5
2018-Jul-06 20:01N 40°40' W 074°01'0 0.0
2018-Jul-06 19:30N 40°40' W 074°01'0 0.0
2018-Jul-06 19:00N 40°40' W 074°01'0 0.0
2018-Jul-06 18:30N 40°40' W 074°01'1 1.3
2018-Jul-06 18:01N 40°40' W 074°01'5 9.9
2018-Jul-06 17:30N 40°39' W 074°08'1 0.3
2018-Jul-06 13:17N 40°38' W 074°09'2 7.7
2018-Jul-06 12:59N 40°40' W 074°08'2 4.2
2018-Jul-06 12:28N 40°43' W 074°07'0 0.0
2018-Jul-06 11:58N 40°43' W 074°07'2 4.1
2018-Jul-06 11:30N 40°41' W 074°08'3 4.5
2018-Jul-06 10:55N 40°38' W 074°09'  

Dump ship's entire track history